Famagusta, Cyprus
Current Conditions -  °F | °C
As of 12:20 PM on Friday 19 Dec 2014 (Local Time) from LCEN Reporting Station
Scattered Clouds Scattered Clouds  
Wind Chill: 63°   Ceiling: Unl
Heat Index: 63°   Visibility: 6mi
Dew Point: 54°   Wind: 7mph
Humidity: 72%   Direction: 80°E
Pressure: 30.06"   Gusts: NA
Location:  35.33°N, 34.07°E
Report Text: LCEN 190920Z 08006KT 020V150 9999 FEW025CB SCT030 17/12 Q1018 NOSIG
Loading
Personal Weather Stations






























Interactive Weather Map New forecast layout! Learn more

10-Day Weather Forecast

Advertisements
Track Severe Weather on mobile